Time;durP1;ratioP1;P1;durP2;ratioP2;P2;SDS_P1;SDS_P2;PMS_P1;PMS_P2;Temp;Humidity;BMP_temperature;BMP_pressure;BME280_temperature;BME280_humidity;BME280_pressure;Samples;Min_cycle;Max_cycle;Signal;HPM_P1;HPM_P2
2023/09/26 00:02:20;;;;;;;16.08;8.35;;;;;;;;;;5102886;28;20359;-83
2023/09/26 00:04:47;;;;;;;12.30;7.90;;;;;;;;;;5120807;28;20016;-83
2023/09/26 00:07:13;;;;;;;15.32;8.52;;;;;;;;;;5102774;28;20050;-84
2023/09/26 00:09:39;;;;;;;12.70;8.25;;;;;;;;;;5102385;28;20097;-84
2023/09/26 00:12:05;;;;;;;17.88;8.60;;;;;;;;;;5102601;28;20054;-83
2023/09/26 00:14:33;;;;;;;15.13;8.52;;;;;;;;;;5102300;28;20043;-84
2023/09/26 00:16:59;;;;;;;16.42;8.85;;;;;;;;;;5120831;28;20344;-83
2023/09/26 00:19:25;;;;;;;16.77;9.65;;;;;;;;;;5120443;28;20119;-83
2023/09/26 00:21:52;;;;;;;16.08;9.23;;;;;;;;;;5120584;28;20020;-84
2023/09/26 00:24:18;;;;;;;15.25;8.98;;;;;;;;;;5120586;28;20075;-84
2023/09/26 00:26:44;;;;;;;15.20;8.85;;;;;;;;;;5120526;28;20440;-84
2023/09/26 00:29:10;;;;;;;13.40;9.23;;;;;;;;;;5102569;28;20128;-84
2023/09/26 00:31:36;;;;;;;17.02;10.23;;;;;;;;;;5120718;28;20030;-84
2023/09/26 00:34:02;;;;;;;16.33;9.18;;;;;;;;;;5120174;28;20019;-84
2023/09/26 00:36:28;;;;;;;15.18;9.00;;;;;;;;;;5102412;28;20024;-84
2023/09/26 00:38:54;;;;;;;13.85;9.70;;;;;;;;;;5120401;28;20032;-84
2023/09/26 00:41:20;;;;;;;14.55;9.60;;;;;;;;;;5120183;28;20035;-84
2023/09/26 00:43:46;;;;;;;13.65;9.13;;;;;;;;;;5120154;28;20024;-84
2023/09/26 00:46:12;;;;;;;13.07;9.82;;;;;;;;;;5102309;28;20041;-84
2023/09/26 00:48:57;;;;;;;16.35;9.10;;;;;;;;;;5120273;28;20020;-84
2023/09/26 00:51:23;;;;;;;18.65;9.90;;;;;;;;;;5101890;28;20035;-84
2023/09/26 00:53:49;;;;;;;15.18;9.57;;;;;;;;;;5120221;28;20095;-84
2023/09/26 00:56:15;;;;;;;15.13;9.60;;;;;;;;;;5120076;28;20027;-85
2023/09/26 00:58:41;;;;;;;17.08;10.13;;;;;;;;;;5120091;28;20015;-85
2023/09/26 01:01:08;;;;;;;15.43;9.98;;;;;;;;;;5102182;28;20321;-85
2023/09/26 01:09:54;;;;;;;14.70;10.27;;;;;;;;;;5119886;28;20030;-84
2023/09/26 01:12:21;;;;;;;13.38;9.52;;;;;;;;;;5101107;28;20050;-84
2023/09/26 01:14:47;;;;;;;18.80;10.32;;;;;;;;;;5119364;28;20055;-84
2023/09/26 01:17:13;;;;;;;17.23;10.35;;;;;;;;;;5119151;28;20031;-85
2023/09/26 01:22:57;;;;;;;14.77;9.90;;;;;;;;;;5119651;28;20043;-84
2023/09/26 01:25:23;;;;;;;13.80;9.77;;;;;;;;;;5119815;28;20024;-84
2023/09/26 01:27:49;;;;;;;16.80;10.80;;;;;;;;;;5100965;28;20019;-84
2023/09/26 01:30:16;;;;;;;18.38;10.55;;;;;;;;;;5119345;28;20016;-84
2023/09/26 01:32:42;;;;;;;17.55;10.38;;;;;;;;;;5119702;28;20024;-84
2023/09/26 01:35:09;;;;;;;20.83;10.50;;;;;;;;;;5119421;28;20095;-84
2023/09/26 01:37:35;;;;;;;12.68;9.93;;;;;;;;;;5119025;28;20020;-83
2023/09/26 01:40:01;;;;;;;21.15;10.55;;;;;;;;;;5119369;28;20042;-84
2023/09/26 01:42:28;;;;;;;16.55;10.77;;;;;;;;;;5100986;28;20035;-84
2023/09/26 01:44:54;;;;;;;17.65;11.18;;;;;;;;;;5119325;28;20031;-84
2023/09/26 01:47:28;;;;;;;14.88;10.38;;;;;;;;;;5119381;28;20053;-84
2023/09/26 01:50:13;;;;;;;16.08;10.57;;;;;;;;;;5119140;28;20111;-84
2023/09/26 01:52:40;;;;;;;18.58;11.20;;;;;;;;;;5119223;28;20028;-84
2023/09/26 01:55:06;;;;;;;18.08;10.45;;;;;;;;;;5100200;28;20039;-84
2023/09/26 01:57:33;;;;;;;14.88;10.68;;;;;;;;;;5118580;28;20032;-84
2023/09/26 02:00:13;;;;;;;16.67;10.23;;;;;;;;;;5118584;28;20106;-84
2023/09/26 02:02:45;;;;;;;14.00;10.13;;;;;;;;;;5119026;28;20020;-84
2023/09/26 02:05:13;;;;;;;17.50;11.15;;;;;;;;;;5118435;28;20031;-84
2023/09/26 02:07:39;;;;;;;16.45;10.50;;;;;;;;;;5118247;28;20073;-85
2023/09/26 02:10:05;;;;;;;18.13;10.63;;;;;;;;;;5118793;28;20310;-84
2023/09/26 02:12:32;;;;;;;19.80;10.55;;;;;;;;;;5118185;28;20055;-84
2023/09/26 02:15:00;;;;;;;16.38;10.77;;;;;;;;;;5119053;28;20034;-84
2023/09/26 02:17:28;;;;;;;16.92;10.40;;;;;;;;;;5100593;28;20110;-85
2023/09/26 02:19:54;;;;;;;13.82;10.88;;;;;;;;;;5118699;28;20077;-85
2023/09/26 02:22:20;;;;;;;17.30;10.13;;;;;;;;;;5118540;28;20024;-85
2023/09/26 02:24:46;;;;;;;17.70;10.95;;;;;;;;;;5118395;28;20421;-85
2023/09/26 02:27:12;;;;;;;17.38;11.02;;;;;;;;;;5100118;28;20028;-85
2023/09/26 02:29:38;;;;;;;15.98;10.48;;;;;;;;;;5100203;28;20031;-85
2023/09/26 02:32:04;;;;;;;15.68;10.82;;;;;;;;;;5118722;28;20129;-85
2023/09/26 02:34:31;;;;;;;13.10;10.82;;;;;;;;;;5118141;28;20020;-85
2023/09/26 02:36:57;;;;;;;17.75;11.63;;;;;;;;;;5100017;28;20031;-84
2023/09/26 02:39:23;;;;;;;21.95;11.15;;;;;;;;;;5118173;28;20052;-85
2023/09/26 02:41:49;;;;;;;16.38;11.40;;;;;;;;;;5100010;28;20031;-85
2023/09/26 02:44:15;;;;;;;16.00;10.68;;;;;;;;;;5118361;28;20106;-84
2023/09/26 02:46:41;;;;;;;18.27;11.10;;;;;;;;;;5118354;28;20019;-84
2023/09/26 02:49:07;;;;;;;14.48;10.88;;;;;;;;;;5099517;28;20039;-84
2023/09/26 02:51:33;;;;;;;17.92;11.05;;;;;;;;;;5118227;28;20030;-84
2023/09/26 02:53:59;;;;;;;18.52;11.40;;;;;;;;;;5117881;28;20026;-84
2023/09/26 02:56:25;;;;;;;16.15;10.90;;;;;;;;;;5099509;28;20035;-84
2023/09/26 02:58:51;;;;;;;19.15;11.57;;;;;;;;;;5117698;28;20023;-83
2023/09/26 03:01:18;;;;;;;17.60;10.73;;;;;;;;;;5117826;28;20443;-84
2023/09/26 03:03:44;;;;;;;17.70;11.00;;;;;;;;;;5099180;28;20329;-84
2023/09/26 03:06:10;;;;;;;21.83;10.80;;;;;;;;;;5117597;28;20020;-83
2023/09/26 03:08:36;;;;;;;14.32;11.13;;;;;;;;;;5117602;28;20031;-84
2023/09/26 03:11:03;;;;;;;21.45;12.05;;;;;;;;;;5117177;28;20020;-84
2023/09/26 03:13:38;;;;;;;17.40;10.75;;;;;;;;;;5117684;28;20036;-84
2023/09/26 03:16:07;;;;;;;22.92;12.65;;;;;;;;;;5099686;28;20027;-84
2023/09/26 03:18:42;;;;;;;16.23;11.98;;;;;;;;;;5120136;28;20036;-85
2023/09/26 03:21:09;;;;;;;19.27;11.70;;;;;;;;;;5120871;28;20093;-83
2023/09/26 03:23:35;;;;;;;22.17;12.32;;;;;;;;;;5120053;28;20149;-83
2023/09/26 03:26:01;;;;;;;21.02;11.60;;;;;;;;;;5083457;28;20032;-84
2023/09/26 03:28:27;;;;;;;19.23;12.40;;;;;;;;;;5101332;28;20074;-85
2023/09/26 03:30:53;;;;;;;18.52;12.40;;;;;;;;;;5088051;28;20059;-84
2023/09/26 03:33:19;;;;;;;22.20;12.48;;;;;;;;;;5103165;28;20040;-84
2023/09/26 03:35:45;;;;;;;22.92;13.90;;;;;;;;;;5121906;28;20024;-84
2023/09/26 03:38:12;;;;;;;22.55;13.20;;;;;;;;;;5120387;28;20020;-84
2023/09/26 03:40:38;;;;;;;22.90;14.23;;;;;;;;;;5120039;28;20107;-84
2023/09/26 03:43:04;;;;;;;18.85;13.80;;;;;;;;;;5101208;28;20314;-84
2023/09/26 03:45:30;;;;;;;20.42;12.75;;;;;;;;;;5101405;28;20077;-85
2023/09/26 03:47:56;;;;;;;16.95;12.68;;;;;;;;;;5107793;28;20038;-84
2023/09/26 03:50:23;;;;;;;17.48;11.70;;;;;;;;;;5122782;27;20019;-84
2023/09/26 03:52:49;;;;;;;20.10;12.95;;;;;;;;;;5121170;28;20027;-86
2023/09/26 03:55:15;;;;;;;22.90;13.35;;;;;;;;;;5121105;28;20313;-83
2023/09/26 03:57:41;;;;;;;18.98;11.75;;;;;;;;;;5102852;28;20082;-84
2023/09/26 04:00:13;;;;;;;19.77;12.93;;;;;;;;;;5102530;28;20048;-84
2023/09/26 04:02:39;;;;;;;;;;;;;;;;;;5121358;28;20092;-85
2023/09/26 04:05:05;;;;;;;17.13;12.95;;;;;;;;;;5120941;28;20247;-85
2023/09/26 04:07:31;;;;;;;19.88;12.57;;;;;;;;;;5121489;28;20016;-85
2023/09/26 04:09:57;;;;;;;22.98;13.68;;;;;;;;;;5120864;28;20074;-84
2023/09/26 04:12:23;;;;;;;25.13;13.82;;;;;;;;;;5102567;28;20051;-84
2023/09/26 04:14:49;;;;;;;18.55;13.50;;;;;;;;;;5120961;28;20024;-84
2023/09/26 04:17:15;;;;;;;21.65;13.10;;;;;;;;;;5120504;28;20024;-82
2023/09/26 04:19:42;;;;;;;20.65;14.30;;;;;;;;;;5102507;28;20027;-83
2023/09/26 04:22:08;;;;;;;19.67;14.68;;;;;;;;;;5120595;28;20361;-83
2023/09/26 04:24:34;;;;;;;26.45;16.38;;;;;;;;;;5120682;28;20290;-84
2023/09/26 04:27:00;;;;;;;24.13;15.50;;;;;;;;;;5102692;28;20024;-84
2023/09/26 04:29:27;;;;;;;20.25;15.07;;;;;;;;;;5120146;28;20031;-84
2023/09/26 04:31:53;;;;;;;22.58;14.43;;;;;;;;;;5120491;28;20029;-84
2023/09/26 04:34:21;;;;;;;27.25;14.27;;;;;;;;;;5102238;28;20027;-84
2023/09/26 04:36:47;;;;;;;18.65;14.02;;;;;;;;;;5120417;28;20028;-83
2023/09/26 04:39:13;;;;;;;25.73;13.98;;;;;;;;;;5120486;28;20035;-84
2023/09/26 04:41:39;;;;;;;25.10;14.30;;;;;;;;;;5101831;28;20130;-84
2023/09/26 04:44:07;;;;;;;29.80;14.07;;;;;;;;;;5119626;28;20035;-84
2023/09/26 04:46:33;;;;;;;23.15;13.52;;;;;;;;;;5120369;28;20107;-84
2023/09/26 04:48:59;;;;;;;21.90;14.00;;;;;;;;;;5120106;28;20028;-84
2023/09/26 04:51:25;;;;;;;23.15;15.05;;;;;;;;;;5120227;28;20047;-84
2023/09/26 04:53:51;;;;;;;19.90;13.82;;;;;;;;;;5101648;28;20030;-84
2023/09/26 04:56:17;;;;;;;19.70;14.73;;;;;;;;;;5101804;28;20105;-84
2023/09/26 04:58:43;;;;;;;20.70;13.95;;;;;;;;;;5120145;28;20156;-84
2023/09/26 05:01:13;;;;;;;20.92;14.98;;;;;;;;;;5102008;28;20028;-84
2023/09/26 05:03:39;;;;;;;21.73;14.93;;;;;;;;;;5120155;28;20032;-84
2023/09/26 05:09:28;;;;;;;25.10;19.35;;;;;;;;;;5120127;28;20023;-84
2023/09/26 05:11:54;;;;;;;26.63;18.75;;;;;;;;;;5119708;28;20051;-84
2023/09/26 05:14:20;;;;;;;30.02;17.95;;;;;;;;;;5120024;28;20127;-84
2023/09/26 05:16:46;;;;;;;22.58;15.85;;;;;;;;;;5119571;28;20046;-84
2023/09/26 05:19:12;;;;;;;18.45;14.73;;;;;;;;;;5119652;28;20024;-84
2023/09/26 05:21:38;;;;;;;22.35;16.75;;;;;;;;;;5119550;28;20030;-83
2023/09/26 05:24:04;;;;;;;27.58;16.00;;;;;;;;;;5119547;28;20024;-84
2023/09/26 05:26:31;;;;;;;19.98;14.38;;;;;;;;;;5119871;28;20023;-84
2023/09/26 05:28:57;;;;;;;22.27;15.05;;;;;;;;;;5119476;28;20039;-84
2023/09/26 05:31:23;;;;;;;27.10;18.45;;;;;;;;;;5119367;28;20023;-84
2023/09/26 05:34:04;;;;;;;23.45;18.38;;;;;;;;;;5119536;28;20073;-85
2023/09/26 05:36:33;;;;;;;24.00;17.55;;;;;;;;;;5101081;28;20031;-84
2023/09/26 05:38:59;;;;;;;22.92;16.08;;;;;;;;;;5119413;28;20062;-84
2023/09/26 05:41:25;;;;;;;24.20;16.10;;;;;;;;;;5118290;28;20055;-84
2023/09/26 05:43:51;;;;;;;25.75;15.77;;;;;;;;;;5100401;28;20420;-84
2023/09/26 05:46:17;;;;;;;22.90;15.23;;;;;;;;;;5100576;28;20039;-84
2023/09/26 05:48:44;;;;;;;21.63;16.48;;;;;;;;;;5118816;28;20472;-84
2023/09/26 05:51:28;;;;;;;25.90;16.08;;;;;;;;;;5118983;28;20455;-84
2023/09/26 05:53:54;;;;;;;21.80;15.93;;;;;;;;;;5119019;28;20030;-84
2023/09/26 05:56:20;;;;;;;23.45;15.18;;;;;;;;;;5119012;28;20080;-84
2023/09/26 05:58:49;;;;;;;23.85;15.10;;;;;;;;;;5118650;28;20030;-84
2023/09/26 06:01:15;;;;;;;23.92;14.23;;;;;;;;;;5100480;28;20042;-84
2023/09/26 06:03:41;;;;;;;24.35;14.77;;;;;;;;;;5118705;28;20023;-83
2023/09/26 06:06:07;;;;;;;23.33;13.13;;;;;;;;;;5118614;28;20020;-83
2023/09/26 06:08:34;;;;;;;22.75;13.10;;;;;;;;;;5118798;28;20481;-84
2023/09/26 06:11:00;;;;;;;21.67;12.30;;;;;;;;;;5118644;28;20032;-84
2023/09/26 06:13:26;;;;;;;17.77;12.65;;;;;;;;;;5118618;28;20032;-83
2023/09/26 06:15:52;;;;;;;21.08;11.68;;;;;;;;;;5118442;28;20098;-84
2023/09/26 06:18:19;;;;;;;19.40;12.48;;;;;;;;;;5100529;28;20080;-84
2023/09/26 06:21:22;;;;;;;20.40;11.38;;;;;;;;;;5100116;28;20413;-85
2023/09/26 06:23:48;;;;;;;14.10;10.40;;;;;;;;;;5097891;28;20063;-84
2023/09/26 06:26:14;;;;;;;19.08;10.65;;;;;;;;;;5098422;28;20051;-84
2023/09/26 06:28:40;;;;;;;20.35;11.77;;;;;;;;;;5111851;28;20028;-85
2023/09/26 06:31:07;;;;;;;17.90;10.52;;;;;;;;;;5118426;28;20472;-85
2023/09/26 06:33:34;;;;;;;17.88;10.10;;;;;;;;;;5118178;28;20024;-85
2023/09/26 06:36:37;;;;;;;16.17;10.45;;;;;;;;;;5118046;28;20337;-85
2023/09/26 06:39:04;;;;;;;16.42;11.23;;;;;;;;;;5117914;28;20027;-84
2023/09/26 06:41:30;;;;;;;18.55;11.73;;;;;;;;;;5099913;28;20031;-84
2023/09/26 06:43:56;;;;;;;17.25;11.35;;;;;;;;;;5118324;28;20028;-84
2023/09/26 06:46:22;;;;;;;16.42;10.20;;;;;;;;;;5118061;28;20024;-84
2023/09/26 06:48:48;;;;;;;17.88;11.32;;;;;;;;;;5118359;28;20023;-85
2023/09/26 06:51:14;;;;;;;14.10;10.82;;;;;;;;;;5099736;28;20393;-85
2023/09/26 06:53:40;;;;;;;17.90;11.05;;;;;;;;;;5117728;28;20019;-83
2023/09/26 06:56:08;;;;;;;21.40;12.15;;;;;;;;;;5118245;28;20028;-88
2023/09/26 06:58:34;;;;;;;25.40;11.50;;;;;;;;;;5118248;28;20030;-87
2023/09/26 07:01:01;;;;;;;22.60;11.40;;;;;;;;;;5118326;28;20053;-88
2023/09/26 07:03:27;;;;;;;17.17;10.85;;;;;;;;;;5117678;28;20108;-79
2023/09/26 07:05:54;;;;;;;19.90;11.57;;;;;;;;;;5098663;28;20040;-79
2023/09/26 07:08:20;;;;;;;16.52;10.55;;;;;;;;;;5117281;28;20055;-79
2023/09/26 07:10:46;;;;;;;17.10;11.30;;;;;;;;;;5116897;28;20030;-79
2023/09/26 07:13:13;;;;;;;18.75;11.35;;;;;;;;;;5098913;28;20051;-79
2023/09/26 07:15:43;;;;;;;14.95;11.50;;;;;;;;;;5099018;28;20046;-79
2023/09/26 07:18:11;;;;;;;15.02;10.43;;;;;;;;;;5116630;28;20405;-79
2023/09/26 07:20:38;;;;;;;21.15;11.90;;;;;;;;;;5116948;28;20024;-79
2023/09/26 07:23:05;;;;;;;22.15;12.18;;;;;;;;;;5117508;28;20032;-88
2023/09/26 07:25:31;;;;;;;20.85;10.95;;;;;;;;;;5116972;28;20405;-87
2023/09/26 07:27:57;;;;;;;17.92;11.77;;;;;;;;;;5099541;28;20024;-87
2023/09/26 07:30:23;;;;;;;27.75;11.05;;;;;;;;;;5081147;28;20020;-88
2023/09/26 07:32:49;;;;;;;17.45;10.68;;;;;;;;;;5099641;28;20032;-87
2023/09/26 07:35:15;;;;;;;14.18;10.27;;;;;;;;;;5099122;28;20126;-87
2023/09/26 07:37:41;;;;;;;16.92;11.30;;;;;;;;;;5107524;28;20043;-87
2023/09/26 07:40:09;;;;;;;14.50;10.10;;;;;;;;;;5103489;28;20147;-88
2023/09/26 07:42:36;;;;;;;16.75;9.48;;;;;;;;;;5111728;28;20039;-87
2023/09/26 07:45:02;;;;;;;23.52;9.38;;;;;;;;;;5116915;28;20054;-87
2023/09/26 07:47:28;;;;;;;16.02;10.55;;;;;;;;;;5117738;28;20047;-86
2023/09/26 07:49:54;;;;;;;16.80;10.82;;;;;;;;;;5099892;28;20023;-87
2023/09/26 07:52:25;;;;;;;15.43;10.30;;;;;;;;;;5116923;28;20042;-88
2023/09/26 07:54:52;;;;;;;18.55;10.93;;;;;;;;;;5084025;28;20035;-87
2023/09/26 07:57:18;;;;;;;12.77;9.30;;;;;;;;;;5100017;28;20313;-87
2023/09/26 07:59:44;;;;;;;13.20;9.70;;;;;;;;;;5117670;28;20028;-87
2023/09/26 08:02:10;;;;;;;16.52;10.32;;;;;;;;;;5098874;28;20414;-88
2023/09/26 08:04:36;;;;;;;14.77;8.52;;;;;;;;;;5100013;28;20409;-87
2023/09/26 08:07:02;;;;;;;16.15;8.93;;;;;;;;;;5121261;28;20051;-85
2023/09/26 08:09:28;;;;;;;15.13;9.25;;;;;;;;;;5103362;28;20023;-89
2023/09/26 08:11:54;;;;;;;19.30;8.80;;;;;;;;;;5120995;28;20134;-88
2023/09/26 08:14:20;;;;;;;12.30;9.32;;;;;;;;;;5103337;28;20028;-88
2023/09/26 08:16:47;;;;;;;13.23;9.10;;;;;;;;;;5102903;28;20028;-88
2023/09/26 08:19:13;;;;;;;12.10;9.43;;;;;;;;;;5120983;28;20051;-88
2023/09/26 08:21:40;;;;;;;15.80;9.20;;;;;;;;;;5121031;28;20031;-88
2023/09/26 08:24:06;;;;;;;26.48;15.10;;;;;;;;;;5103069;28;20092;-88
2023/09/26 08:26:32;;;;;;;15.52;10.15;;;;;;;;;;5102746;28;20035;-88
2023/09/26 08:47:56;;;;;;;17.10;8.17;;;;;;;;;;4810988;29;20034;-92
2023/09/26 08:53:25;;;;;;;15.13;8.90;;;;;;;;;;5036692;22;20469;-90
2023/09/26 08:55:52;;;;;;;13.88;9.23;;;;;;;;;;5013679;28;20129;-90
2023/09/26 08:58:20;;;;;;;13.75;8.45;;;;;;;;;;5002905;28;20022;-91
2023/09/26 09:00:46;;;;;;;17.30;9.25;;;;;;;;;;5002472;28;20316;-89
2023/09/26 09:03:15;;;;;;;16.83;9.35;;;;;;;;;;5029987;28;20032;-89
2023/09/26 09:05:41;;;;;;;18.75;9.95;;;;;;;;;;5012353;28;20416;-90
2023/09/26 09:08:08;;;;;;;20.67;8.38;;;;;;;;;;5024417;28;20044;-89
2023/09/26 09:10:53;;;;;;;16.23;8.60;;;;;;;;;;5012502;28;20408;-90
2023/09/26 09:13:45;;;;;;;17.05;8.48;;;;;;;;;;5012712;28;20045;-90
2023/09/26 09:16:11;;;;;;;13.05;8.55;;;;;;;;;;5032683;28;20482;-90
2023/09/26 09:18:38;;;;;;;17.63;8.70;;;;;;;;;;5027895;28;20026;-90
2023/09/26 09:21:21;;;;;;;16.92;8.35;;;;;;;;;;5024531;28;20026;-90
2023/09/26 09:23:47;;;;;;;17.27;8.25;;;;;;;;;;5024452;28;20056;-91
2023/09/26 09:26:14;;;;;;;17.55;8.50;;;;;;;;;;5021597;28;20037;-89
2023/09/26 09:28:40;;;;;;;12.50;7.90;;;;;;;;;;5029939;28;20033;-90
2023/09/26 09:31:06;;;;;;;17.38;7.47;;;;;;;;;;5010826;28;20044;-90
2023/09/26 09:33:32;;;;;;;17.98;7.35;;;;;;;;;;5039526;28;20037;-90
2023/09/26 09:35:58;;;;;;;13.20;6.53;;;;;;;;;;5038685;28;20030;-91
2023/09/26 09:38:26;;;;;;;16.38;6.65;;;;;;;;;;5036651;28;20053;-92
2023/09/26 09:40:52;;;;;;;13.07;6.50;;;;;;;;;;5004902;28;20034;-89
2023/09/26 09:43:21;;;;;;;8.43;5.97;;;;;;;;;;5037697;28;20076;-89
2023/09/26 09:45:47;;;;;;;14.13;5.82;;;;;;;;;;5038802;28;20108;-89
2023/09/26 09:48:14;;;;;;;10.48;5.65;;;;;;;;;;5031889;28;20026;-89
2023/09/26 09:50:42;;;;;;;12.50;5.47;;;;;;;;;;5001541;28;20030;-90
2023/09/26 09:53:08;;;;;;;15.18;5.18;;;;;;;;;;5018780;28;20408;-90
2023/09/26 09:55:39;;;;;;;17.52;5.35;;;;;;;;;;5019007;28;20084;-91
2023/09/26 09:58:09;;;;;;;12.18;4.85;;;;;;;;;;5022529;28;20064;-91
2023/09/26 10:00:40;;;;;;;8.55;5.40;;;;;;;;;;5040588;28;20029;-90
2023/09/26 10:03:06;;;;;;;12.70;5.17;;;;;;;;;;5038738;28;20312;-90
2023/09/26 10:05:37;;;;;;;15.48;4.95;;;;;;;;;;5008740;28;20302;-90
2023/09/26 10:08:04;;;;;;;17.50;5.47;;;;;;;;;;5041498;28;20056;-90
2023/09/26 10:10:31;;;;;;;15.57;4.65;;;;;;;;;;5020955;28;20022;-89
2023/09/26 10:12:57;;;;;;;10.10;4.78;;;;;;;;;;5020583;28;20037;-89
2023/09/26 10:15:23;;;;;;;15.05;6.10;;;;;;;;;;5035766;28;20033;-87
2023/09/26 10:17:49;;;;;;;11.73;5.32;;;;;;;;;;5022009;28;20076;-87
2023/09/26 10:20:16;;;;;;;12.10;4.75;;;;;;;;;;5021741;28;20120;-87
2023/09/26 10:22:46;;;;;;;13.20;5.05;;;;;;;;;;5025175;28;20072;-90
2023/09/26 10:25:18;;;;;;;14.95;5.00;;;;;;;;;;5039053;28;20052;-90
2023/09/26 10:27:46;;;;;;;10.43;5.03;;;;;;;;;;5037450;28;20038;-91
2023/09/26 10:30:14;;;;;;;14.15;5.47;;;;;;;;;;5026962;28;20327;-90
2023/09/26 10:32:41;;;;;;;11.85;5.15;;;;;;;;;;5025141;28;20025;-88
2023/09/26 10:35:13;;;;;;;11.88;4.97;;;;;;;;;;5035795;28;20037;-88
2023/09/26 10:37:44;;;;;;;11.18;4.45;;;;;;;;;;5020554;28;20028;-88
2023/09/26 10:40:13;;;;;;;14.40;4.47;;;;;;;;;;5038382;28;20348;-88
2023/09/26 10:42:42;;;;;;;10.55;4.43;;;;;;;;;;5020426;28;20026;-88
2023/09/26 10:45:12;;;;;;;9.50;4.22;;;;;;;;;;5019952;28;20029;-88
2023/09/26 10:47:40;;;;;;;10.00;4.78;;;;;;;;;;5020586;28;20395;-85
2023/09/26 10:50:12;;;;;;;8.70;4.22;;;;;;;;;;5037684;28;20021;-88
2023/09/26 10:52:46;;;;;;;10.60;4.38;;;;;;;;;;5037766;28;20061;-88
2023/09/26 10:55:13;;;;;;;9.50;4.20;;;;;;;;;;5019979;28;20045;-88
2023/09/26 10:57:39;;;;;;;13.02;4.47;;;;;;;;;;5020901;28;20383;-87
2023/09/26 11:00:10;;;;;;;13.85;3.78;;;;;;;;;;5050760;28;20426;-87
2023/09/26 11:02:36;;;;;;;;;;;;;;;;;;5040508;28;20128;-87
2023/09/26 11:11:18;;;;;;;10.57;4.45;;;;;;;;;;5057726;28;20032;-87
2023/09/26 11:13:44;;;;;;;9.35;4.18;;;;;;;;;;5057645;28;20029;-87
2023/09/26 11:16:12;;;;;;;10.82;4.18;;;;;;;;;;5060675;28;20027;-86
2023/09/26 11:18:38;;;;;;;11.70;4.78;;;;;;;;;;5059793;28;20024;-86
2023/09/26 11:21:04;;;;;;;8.73;4.03;;;;;;;;;;5059532;28;20072;-86
2023/09/26 11:23:39;;;;;;;14.40;4.70;;;;;;;;;;5055152;28;20048;-82
2023/09/26 11:26:06;;;;;;;14.60;4.60;;;;;;;;;;5038886;28;20097;-81
2023/09/26 11:28:32;;;;;;;14.77;4.07;;;;;;;;;;5056889;28;20025;-81
2023/09/26 11:30:59;;;;;;;15.18;4.13;;;;;;;;;;5055954;28;20029;-81
2023/09/26 11:33:25;;;;;;;13.93;4.95;;;;;;;;;;5033473;28;20041;-91
2023/09/26 11:38:55;;;;;;;9.35;4.40;;;;;;;;;;5074803;28;20047;-91
2023/09/26 11:41:21;;;;;;;8.90;4.28;;;;;;;;;;5041254;28;20032;-91
2023/09/26 11:43:47;;;;;;;10.20;4.40;;;;;;;;;;5033546;28;20029;-92
2023/09/26 11:46:14;;;;;;;11.90;4.10;;;;;;;;;;5063373;28;20120;-91
2023/09/26 11:48:41;;;;;;;10.55;4.60;;;;;;;;;;5047335;28;20029;-92
2023/09/26 11:51:26;;;;;;;9.00;3.97;;;;;;;;;;5080548;28;20056;-92
2023/09/26 11:53:52;;;;;;;12.68;4.38;;;;;;;;;;5048188;28;20120;-91
2023/09/26 11:56:18;;;;;;;11.00;3.83;;;;;;;;;;5040689;28;20124;-91
2023/09/26 11:58:45;;;;;;;10.48;3.85;;;;;;;;;;5024903;28;20037;-92
2023/09/26 12:01:11;;;;;;;14.13;3.97;;;;;;;;;;5031167;28;20125;-91
2023/09/26 12:03:37;;;;;;;13.18;4.20;;;;;;;;;;5039405;28;20080;-92
2023/09/26 12:06:05;;;;;;;10.65;5.15;;;;;;;;;;5039465;28;20049;-92
2023/09/26 12:08:31;;;;;;;10.82;4.65;;;;;;;;;;5011436;28;20045;-92
2023/09/26 12:10:57;;;;;;;13.15;4.38;;;;;;;;;;5003569;28;20025;-91
2023/09/26 12:13:23;;;;;;;13.80;5.05;;;;;;;;;;5025752;28;20217;-93
2023/09/26 12:15:49;;;;;;;15.40;3.72;;;;;;;;;;5021431;28;20038;-92
2023/09/26 12:18:15;;;;;;;10.23;3.80;;;;;;;;;;5014615;28;20026;-92
2023/09/26 12:20:44;;;;;;;11.40;3.67;;;;;;;;;;5008556;28;20048;-90
2023/09/26 12:23:12;;;;;;;13.43;4.80;;;;;;;;;;5003117;28;20161;-90
2023/09/26 12:25:39;;;;;;;8.57;3.58;;;;;;;;;;5014168;28;20025;-92
2023/09/26 12:28:05;;;;;;;8.25;3.63;;;;;;;;;;5040386;28;20099;-92
2023/09/26 12:30:31;;;;;;;8.95;4.20;;;;;;;;;;5020249;28;20040;-92
2023/09/26 12:32:59;;;;;;;11.48;4.90;;;;;;;;;;5040733;28;20348;-90
2023/09/26 12:38:28;;;;;;;10.80;4.55;;;;;;;;;;5027242;28;20042;-86
2023/09/26 12:40:54;;;;;;;12.27;4.13;;;;;;;;;;5039725;28;20026;-85
2023/09/26 12:43:21;;;;;;;9.30;3.80;;;;;;;;;;5039696;28;20032;-82
2023/09/26 12:45:47;;;;;;;10.02;4.82;;;;;;;;;;5029259;28;20105;-84
2023/09/26 12:48:13;;;;;;;10.98;4.93;;;;;;;;;;5036409;28;20120;-84
2023/09/26 12:50:39;;;;;;;8.00;3.95;;;;;;;;;;5010207;28;20091;-83
2023/09/26 12:53:05;;;;;;;18.60;4.20;;;;;;;;;;5038329;28;20080;-84
2023/09/26 12:55:31;;;;;;;8.27;4.57;;;;;;;;;;5039094;28;20434;-83
2023/09/26 12:57:57;;;;;;;8.38;3.90;;;;;;;;;;5024660;28;20064;-84
2023/09/26 13:00:24;;;;;;;17.13;4.10;;;;;;;;;;5019787;28;20026;-84
2023/09/26 13:02:50;;;;;;;11.13;4.25;;;;;;;;;;5023849;28;20033;-83
2023/09/26 13:05:16;;;;;;;9.98;3.88;;;;;;;;;;5029701;28;20101;-84
2023/09/26 13:07:43;;;;;;;13.25;4.35;;;;;;;;;;5039473;28;20036;-84
2023/09/26 13:10:10;;;;;;;9.35;4.03;;;;;;;;;;5031419;28;20063;-83
2023/09/26 13:12:38;;;;;;;5.93;3.95;;;;;;;;;;5017253;28;20399;-84
2023/09/26 13:15:04;;;;;;;11.20;5.22;;;;;;;;;;5040986;28;20071;-84
2023/09/26 13:17:31;;;;;;;10.57;4.85;;;;;;;;;;5015772;28;20076;-85
2023/09/26 13:19:57;;;;;;;10.13;3.95;;;;;;;;;;5021325;28;20033;-83
2023/09/26 13:22:23;;;;;;;13.43;4.85;;;;;;;;;;5005419;28;20026;-83
2023/09/26 13:24:50;;;;;;;11.05;4.40;;;;;;;;;;5019121;28;20034;-83
2023/09/26 13:27:16;;;;;;;9.45;5.00;;;;;;;;;;5023643;28;20026;-82
2023/09/26 13:29:42;;;;;;;7.80;4.05;;;;;;;;;;5020272;28;20040;-81
2023/09/26 13:32:08;;;;;;;11.25;4.40;;;;;;;;;;5031347;28;20022;-82
2023/09/26 13:34:34;;;;;;;13.00;4.05;;;;;;;;;;5018653;28;20037;-81
2023/09/26 13:37:00;;;;;;;8.43;4.00;;;;;;;;;;5018639;28;20136;-82
2023/09/26 13:39:27;;;;;;;15.50;4.45;;;;;;;;;;5000047;28;20041;-81
2023/09/26 13:41:53;;;;;;;8.73;4.38;;;;;;;;;;5028046;28;20037;-82
2023/09/26 13:44:19;;;;;;;6.15;4.05;;;;;;;;;;5038311;28;20029;-82
2023/09/26 13:46:45;;;;;;;10.18;3.65;;;;;;;;;;5020001;28;20293;-81
2023/09/26 13:49:11;;;;;;;16.48;3.83;;;;;;;;;;5038189;28;20423;-83
2023/09/26 13:51:57;;;;;;;10.18;3.70;;;;;;;;;;5036733;28;20033;-83
2023/09/26 13:54:25;;;;;;;12.02;4.07;;;;;;;;;;5034151;28;20040;-82
2023/09/26 13:56:52;;;;;;;9.82;4.30;;;;;;;;;;5017750;28;20180;-82
2023/09/26 13:59:18;;;;;;;11.38;3.80;;;;;;;;;;5024255;28;20022;-82
2023/09/26 14:01:44;;;;;;;10.13;3.63;;;;;;;;;;5019537;28;20075;-83
2023/09/26 14:04:10;;;;;;;12.30;4.25;;;;;;;;;;5036743;28;20037;-82
2023/09/26 14:07:13;;;;;;;12.73;3.92;;;;;;;;;;5036751;28;20029;-82
2023/09/26 14:09:39;;;;;;;12.10;3.95;;;;;;;;;;5037077;28;20022;-83
2023/09/26 14:12:06;;;;;;;11.48;3.70;;;;;;;;;;5037028;28;20071;-83
2023/09/26 14:14:34;;;;;;;13.02;4.05;;;;;;;;;;5038119;28;20332;-84
2023/09/26 14:17:00;;;;;;;8.00;3.88;;;;;;;;;;5036203;28;20418;-88
2023/09/26 14:19:26;;;;;;;7.82;3.20;;;;;;;;;;5035960;28;20018;-88
2023/09/26 14:21:52;;;;;;;14.52;4.63;;;;;;;;;;5019033;28;20030;-89
2023/09/26 14:24:18;;;;;;;10.13;3.97;;;;;;;;;;5037306;28;20066;-91
2023/09/26 14:26:44;;;;;;;9.63;3.63;;;;;;;;;;5024198;28;20057;-90
2023/09/26 14:29:10;;;;;;;9.73;3.75;;;;;;;;;;5036378;28;20017;-79
2023/09/26 14:31:36;;;;;;;11.95;3.75;;;;;;;;;;5037560;28;20033;-78
2023/09/26 14:34:02;;;;;;;14.55;4.57;;;;;;;;;;5037060;28;20035;-78
2023/09/26 14:36:28;;;;;;;11.80;3.92;;;;;;;;;;5035855;28;20025;-80
2023/09/26 14:38:54;;;;;;;15.63;4.32;;;;;;;;;;5033958;28;20451;-87
2023/09/26 14:41:20;;;;;;;16.38;3.97;;;;;;;;;;5029483;28;20495;-91
2023/09/26 14:43:47;;;;;;;20.60;3.95;;;;;;;;;;5037789;28;20029;-90
2023/09/26 14:46:13;;;;;;;17.63;4.30;;;;;;;;;;5038060;28;20106;-90
2023/09/26 14:48:39;;;;;;;12.55;3.65;;;;;;;;;;5037712;28;20422;-91
2023/09/26 14:54:22;;;;;;;10.20;3.40;;;;;;;;;;5038200;28;20088;-91
2023/09/26 14:56:48;;;;;;;11.82;3.85;;;;;;;;;;5020679;28;20026;-91
2023/09/26 14:59:14;;;;;;;12.77;4.03;;;;;;;;;;5020210;28;20022;-89
2023/09/26 15:01:40;;;;;;;12.13;4.20;;;;;;;;;;5020558;28;20026;-89
2023/09/26 15:04:06;;;;;;;15.15;4.28;;;;;;;;;;5000310;28;20487;-91
2023/09/26 15:06:51;;;;;;;13.13;4.30;;;;;;;;;;5000782;28;20439;-90
2023/09/26 15:09:17;;;;;;;21.15;4.70;;;;;;;;;;5014269;28;20025;-90
2023/09/26 15:11:43;;;;;;;13.52;4.50;;;;;;;;;;5041198;28;20029;-90
2023/09/26 15:14:09;;;;;;;14.38;4.63;;;;;;;;;;5039831;28;20131;-90
2023/09/26 15:16:35;;;;;;;14.25;5.15;;;;;;;;;;5058573;28;20052;-89
2023/09/26 15:19:01;;;;;;;12.30;4.70;;;;;;;;;;5040880;28;20037;-89